• Join FlightAware (Why Join?)
  • Login
  • US Flag 
01:41AM EDT


 

Airport Tracker/Info


-or-


 

Live Flight TrackerFlight Track Log ✈ RPA5940 ✈ 29-Jun-2013 ✈ KUTA - KMBS

Flight Track Log - Related Links

Times and Time Zones

All times are in EDT time to prevent confusion due to time zone crossing. See the RPA5940 flight status page for this flight to view local times or setup timezone preferences in your user account.

Time Position Orientation Groundspeed Altitude Reporting Facility
EDT Latitude Longitude Course Direction KTS MPH feet Rate Location/Type
10:59AM 34.7167 -90.3500 360° North 154 177 1,200  Level KMEM
11:00AM 34.8000 -90.3500 360° North 241 277 3,200 2,040 Climbing KMEM
11:01AM 34.8500 -90.3333 15° North 278 320 6,000 2,940 Climbing KMEM
11:02AM 34.9031 -90.2458 54° Northeast 292 336 9,200 2,460 Climbing Memphis Center
11:03AM 34.9444 -90.1519 62° Northeast 305 351 11,300 2,220 Climbing Memphis Center
11:04AM 34.9833 -90.0500 65° Northeast 333 383 13,700 2,100 Climbing KMEM
11:05AM 35.0333 -89.9667 54° Northeast 348 400 15,500 1,260 Climbing KMEM
11:07AM 35.2003 -89.8514 29° Northeast 356 410 17,600 1,380 Climbing Memphis Center
11:08AM 35.2833 -89.7897 31° Northeast 343 395 19,700 1,860 Climbing Memphis Center
11:09AM 35.3686 -89.7256 32° Northeast 343 395 21,400 1,560 Climbing Memphis Center
11:10AM 35.4581 -89.6586 31° Northeast 352 405 22,900 1,380 Climbing Memphis Center
11:11AM 35.5556 -89.5864 31° Northeast 361 415 24,200 1,380 Climbing Memphis Center
11:12AM 35.6489 -89.5192 30° Northeast 375 432 25,700 1,380 Climbing Memphis Center
11:13AM 35.7403 -89.4464 33° Northeast 386 444 27,000 1,200 Climbing Memphis Center
11:14AM 35.8378 -89.3736 31° Northeast 386 444 28,200 1,140 Climbing Memphis Center
11:15AM 35.9372 -89.2981 32° Northeast 398 458 29,300 1,080 Climbing Memphis Center
11:16AM 36.0386 -89.2225 31° Northeast 409 471 30,400 1,020 Climbing Memphis Center
11:17AM 36.1422 -89.1414 32° Northeast 423 487 31,400 900 Climbing Memphis Center
11:18AM 36.2478 -89.0650 30° Northeast 428 493 32,300 840 Climbing Memphis Center
11:19AM 36.3531 -88.9836 32° Northeast 433 498 33,100 900 Climbing Memphis Center
11:20AM 36.4628 -88.9042 30° Northeast 438 504 34,100 900 Climbing Memphis Center
11:21AM 36.5681 -88.8250 31° Northeast 438 504 35,000 420 Climbing Memphis Center
11:22AM 36.6733 -88.7478 30° Northeast 438 504 35,000  Level Memphis Center
11:23AM 36.7806 -88.6653 32° Northeast 438 504 35,000  Level Memphis Center
11:24AM 36.8900 -88.5825 31° Northeast 443 510 35,000  Level Memphis Center
11:25AM 36.9972 -88.4997 32° Northeast 443 510 35,000  Level Memphis Center
11:26AM 37.1042 -88.4167 32° Northeast 443 510 35,000  Level Memphis Center
11:28AM 37.2906 -88.2650 33° Northeast 457 526 35,000  Level Indianapolis Center
11:29AM 37.3978 -88.1825 31° Northeast 450 518 35,000  Level Indianapolis Center
11:30AM 37.5053 -88.0956 33° Northeast 453 521 35,000  Level Indianapolis Center
11:31AM 37.6136 -88.0114 32° Northeast 452 520 35,000  Level Indianapolis Center
11:32AM 37.7219 -87.9244 32° Northeast 454 522 35,000  Level Indianapolis Center
11:33AM 37.8292 -87.8394 32° Northeast 457 526 35,000  Level Indianapolis Center
11:34AM 37.9658 -87.7519 27° Northeast 456 525 35,000  Level Indianapolis Center
11:35AM 38.0797 -87.6822 26° Northeast 454 522 35,000  Level Indianapolis Center
11:36AM 38.1964 -87.6114 26° Northeast 461 531 35,000  Level Indianapolis Center
11:37AM 38.3133 -87.5408 25° Northeast 459 528 35,000  Level Indianapolis Center
11:38AM 38.4289 -87.4694 26° Northeast 455 524 35,000  Level Indianapolis Center
11:40AM 38.5444 -87.3992 25° Northeast 454 522 35,000  Level Indianapolis Center
11:41AM 38.6600 -87.3292 25° Northeast 453 521 35,000  Level Indianapolis Center
11:42AM 38.7733 -87.2581 26° Northeast 451 519 35,000  Level Indianapolis Center
11:43AM 38.8864 -87.1892 25° Northeast 448 516 35,000  Level Indianapolis Center
11:44AM 38.9994 -87.1189 26° Northeast 447 514 35,000  Level Indianapolis Center
11:45AM 39.1139 -87.0497 25° Northeast 452 520 35,000  Level Indianapolis Center
11:46AM 39.2347 -86.9719 26° Northeast 455 524 35,000  Level Indianapolis Center
11:47AM 39.3500 -86.9006 26° Northeast 458 527 35,000  Level Indianapolis Center
11:48AM 39.4650 -86.8286 26° Northeast 458 527 35,000  Level Indianapolis Center
11:49AM 39.5789 -86.7561 26° Northeast 454 522 35,000  Level Indianapolis Center
11:50AM 39.7156 -86.6697 26° Northeast 452 520 35,000  Level Indianapolis Center
11:51AM 39.8306 -86.5969 26° Northeast 451 519 35,000  Level Indianapolis Center
11:52AM 39.9458 -86.5231 26° Northeast 455 524 35,000  Level Indianapolis Center
11:53AM 40.0592 -86.4503 26° Northeast 450 518 35,000  Level Indianapolis Center
11:54AM 40.1719 -86.3825 25° Northeast 445 512 35,000  Level Indianapolis Center
11:54AM 40.2203 -86.3667 14° North 443 510 35,000  Level Chicago Center
11:55AM 40.3633 -86.3186 14° North 442 509 35,000  Level Chicago Center
11:56AM 40.4828 -86.2750 16° North 445 512 35,000  Level Chicago Center
11:58AM 40.5986 -86.2092 23° Northeast 451 519 35,000  Level Chicago Center
11:59AM 40.7217 -86.1244 28° Northeast 451 519 35,000  Level Chicago Center
12:00PM 40.8308 -86.0481 28° Northeast 446 513 35,000  Level Chicago Center
12:01PM 40.9389 -85.9719 28° Northeast 442 509 35,000  Level Chicago Center
12:02PM 41.0481 -85.8969 27° Northeast 441 507 35,000  Level Chicago Center
12:03PM 41.1561 -85.8214 28° Northeast 440 506 35,000  Level Chicago Center
12:04PM 41.2842 -85.7319 28° Northeast 435 501 35,000  Level Chicago Center
12:05PM 41.3919 -85.6547 28° Northeast 437 503 35,000  Level Chicago Center
12:06PM 41.5006 -85.5789 28° Northeast 440 506 35,000  Level Chicago Center
12:07PM 41.6044 -85.5056 28° Northeast 437 503 35,000  Level Chicago Center
12:08PM 41.7125 -85.4292 28° Northeast 438 504 35,000 -240 Level Chicago Center
12:09PM 41.8344 -85.3406 28° Northeast 444 511 34,600 -720 Descending Chicago Center
12:10PM 41.9383 -85.2661 28° Northeast 428 493 33,600 -1,080 Descending Chicago Center
12:11PM 42.0500 -85.1833 29° Northeast 429 494 32,400 -1,260 Descending Chicago Center
12:12PM 42.1556 -85.1053 29° Northeast 433 498 31,100 -1,260 Descending Chicago Center
12:13PM 42.2483 -85.0044 39° Northeast 439 505 29,900 -1,200 Descending Chicago Center
12:14PM 42.3100 -84.8692 58° Northeast 426 490 28,700 -1,260 Descending Chicago Center
12:15PM 42.3828 -84.7106 58° Northeast 418 481 27,300 -1,560 Descending Chicago Center
12:16PM 42.4719 -84.6261 35° Northeast 405 466 25,500 -1,620 Descending Chicago Center
12:17PM 42.5736 -84.5725 21° North 395 455 24,000 -780 Descending Chicago Center
12:18PM 42.6753 -84.5219 20° North 390 449 24,000 -540 Level Chicago Center
12:19PM 42.7767 -84.4692 21° North 393 452 23,000 -1,920 Descending Chicago Center
12:20PM 42.8983 -84.4081 20° North 389 448 20,100 -2,640 Descending Chicago Center
12:21PM 42.9914 -84.3592 21° North 365 420 17,600 -2,520 Descending Chicago Center
12:22PM 43.0800 -84.3144 20° North 346 398 15,000 -2,400 Descending Chicago Center
12:23PM 43.1769 -84.2644 21° North 332 382 12,500 -2,280 Descending Cleveland Center